Time;durP1;ratioP1;P1;durP2;ratioP2;P2;SDS_P1;SDS_P2;PMS_P1;PMS_P2;Temp;Humidity;BMP_temperature;BMP_pressure;BME280_temperature;BME280_humidity;BME280_pressure;Samples;Min_cycle;Max_cycle;Signal;HPM_P1;HPM_P2
2023/04/24 00:01:14;;;;;;;10.38;5.57;;;;;;;14.25;49.73;94965.09;4983570;28;20044;-77
2023/04/24 00:03:40;;;;;;;13.95;5.50;;;;;;;14.41;48.54;94978.91;4985789;28;20485;-77
2023/04/24 00:06:07;;;;;;;8.07;5.03;;;;;;;14.27;47.76;95001.03;4975210;28;20034;-77
2023/04/24 00:08:36;;;;;;;13.95;4.75;;;;;;;13.97;47.78;94936.91;4988042;28;20029;-77
2023/04/24 00:11:01;;;;;;;10.02;4.13;;;;;;;14.09;47.74;94955.84;4994323;28;20205;-77
2023/04/24 00:13:28;;;;;;;9.65;4.65;;;;;;;14.27;46.93;94986.91;4994635;28;20129;-77
2023/04/24 00:15:57;;;;;;;8.90;4.40;;;;;;;14.12;46.92;94956.03;4994664;28;20038;-77
2023/04/24 00:18:22;;;;;;;13.65;4.93;;;;;;;14.33;46.59;94980.38;5012036;28;20060;-77
2023/04/24 00:20:48;;;;;;;10.73;4.72;;;;;;;14.10;46.50;94954.75;4993653;28;20042;-77
2023/04/24 00:23:13;;;;;;;16.08;4.82;;;;;;;14.17;46.17;94957.81;4990266;28;20057;-77
2023/04/24 00:25:39;;;;;;;12.30;4.90;;;;;;;14.24;46.48;94974.97;4993158;28;20126;-77
2023/04/24 00:28:05;;;;;;;7.07;4.28;;;;;;;14.20;46.53;94978.50;4995915;28;20031;-77
2023/04/24 00:30:31;;;;;;;9.10;5.28;;;;;;;13.95;46.76;94945.22;4994535;28;20088;-77
2023/04/24 00:32:57;;;;;;;12.32;5.32;;;;;;;14.14;46.70;94980.50;4993814;28;20132;-77
2023/04/24 00:35:23;;;;;;;14.35;5.20;;;;;;;14.09;46.48;94982.50;5012201;28;20033;-77
2023/04/24 00:37:48;;;;;;;8.98;5.30;;;;;;;13.94;46.76;94983.63;5012014;28;20044;-77
2023/04/24 00:40:14;;;;;;;10.52;5.38;;;;;;;13.59;47.05;94921.16;5012103;28;20031;-77
2023/04/24 00:42:40;;;;;;;10.48;5.10;;;;;;;13.73;47.35;94951.25;4993846;28;20104;-77
2023/04/24 00:45:06;;;;;;;11.23;5.25;;;;;;;13.67;47.31;94935.66;5012103;28;20030;-77
2023/04/24 00:47:33;;;;;;;17.27;4.75;;;;;;;13.75;47.52;94942.97;4993953;28;20443;-77
2023/04/24 00:50:00;;;;;;;6.10;4.60;;;;;;;13.87;47.58;94964.59;4993820;28;20121;-77
2023/04/24 00:52:25;;;;;;;9.23;4.72;;;;;;;13.93;47.58;94970.59;5010944;28;20037;-77
2023/04/24 00:54:50;;;;;;;14.73;5.70;;;;;;;13.96;47.44;94978.75;4993448;28;20032;-77
2023/04/24 00:57:17;;;;;;;9.85;4.93;;;;;;;13.94;47.50;94977.50;5011232;28;20527;-77
2023/04/24 00:59:43;;;;;;;11.75;5.05;;;;;;;13.96;47.44;94975.34;4993931;28;20037;-77
2023/04/24 01:02:10;;;;;;;10.88;5.30;;;;;;;13.66;47.90;94934.88;5011878;28;20034;-77
2023/04/24 01:04:36;;;;;;;12.55;4.97;;;;;;;13.75;47.78;94948.28;4993436;28;20033;-77
2023/04/24 01:07:02;;;;;;;9.35;5.13;;;;;;;13.69;48.81;94936.97;5011307;28;20045;-77
2023/04/24 01:09:28;;;;;;;10.23;5.38;;;;;;;13.99;49.36;94972.06;5010892;28;20033;-77
2023/04/24 01:11:54;;;;;;;8.13;4.97;;;;;;;13.45;50.94;94888.44;4989781;28;20049;-77
2023/04/24 01:14:20;;;;;;;7.22;4.70;;;;;;;13.84;53.22;94962.50;4982650;28;20139;-76
2023/04/24 01:16:46;;;;;;;18.13;6.18;;;;;;;13.77;53.86;94946.13;4972816;28;20050;-77
2023/04/24 01:19:15;;;;;;;9.63;5.00;;;;;;;13.84;53.55;94951.84;4981476;28;20113;-77
2023/04/24 01:21:43;;;;;;;15.15;5.63;;;;;;;13.81;53.28;94941.75;4990165;28;20026;-77
2023/04/24 01:24:08;;;;;;;10.52;5.97;;;;;;;13.94;53.14;94962.31;4989817;28;20333;-77
2023/04/24 01:26:34;;;;;;;8.20;4.95;;;;;;;13.81;53.26;94952.44;4990152;28;20033;-77
2023/04/24 01:28:59;;;;;;;7.40;4.63;;;;;;;13.80;52.98;94956.19;4991804;28;20413;-77
2023/04/24 01:31:25;;;;;;;9.30;5.22;;;;;;;13.44;53.19;94892.19;4992214;28;20034;-77
2023/04/24 01:33:52;;;;;;;12.38;5.32;;;;;;;13.78;52.33;94958.38;5005621;28;20041;-77
2023/04/24 01:36:18;;;;;;;9.68;5.30;;;;;;;13.35;51.81;94886.00;4990235;28;20022;-77
2023/04/24 01:38:44;;;;;;;11.07;5.50;;;;;;;13.40;51.99;94907.97;4989740;28;20026;-77
2023/04/24 01:41:10;;;;;;;15.40;5.60;;;;;;;13.44;50.64;94908.16;4990368;28;20517;-77
2023/04/24 01:43:35;;;;;;;11.23;5.88;;;;;;;13.30;50.46;94894.88;4990107;28;20065;-77
2023/04/24 01:46:01;;;;;;;10.15;5.80;;;;;;;13.36;50.12;94924.84;4991310;28;20401;-77
2023/04/24 01:48:27;;;;;;;12.20;6.38;;;;;;;13.35;50.09;94915.28;4990036;28;20030;-77
2023/04/24 01:50:52;;;;;;;13.88;6.18;;;;;;;13.29;50.33;94916.47;4990463;28;20061;-79
2023/04/24 01:53:18;;;;;;;8.63;5.00;;;;;;;13.32;50.05;94921.19;4990215;28;20029;-79
2023/04/24 01:55:43;;;;;;;13.00;5.45;;;;;;;13.32;50.28;94926.53;4989784;28;20398;-79
2023/04/24 01:58:10;;;;;;;11.20;5.60;;;;;;;13.36;50.12;94938.16;4979895;28;20117;-79
2023/04/24 02:00:36;;;;;;;11.63;6.15;;;;;;;13.16;50.09;94917.25;4970503;28;20023;-79
2023/04/24 02:03:01;;;;;;;14.98;5.35;;;;;;;13.06;50.10;94908.34;4982540;28;20045;-79
2023/04/24 02:05:27;;;;;;;11.32;6.15;;;;;;;13.06;50.52;94916.31;4988098;28;20027;-78
2023/04/24 02:07:52;;;;;;;15.07;5.45;;;;;;;12.76;50.88;94880.41;4975499;28;20381;-79
2023/04/24 02:10:18;;;;;;;15.27;5.30;;;;;;;13.09;50.87;94928.25;4972151;28;20038;-78
2023/04/24 02:12:43;;;;;;;17.65;6.32;;;;;;;12.94;50.91;94910.69;4989781;28;20046;-78
2023/04/24 02:15:09;;;;;;;13.30;6.57;;;;;;;12.60;51.04;94867.66;4971542;28;20115;-79
2023/04/24 02:17:36;;;;;;;17.05;6.60;;;;;;;13.02;51.13;94933.97;4974124;28;20060;-78
2023/04/24 02:20:01;;;;;;;14.18;6.22;;;;;;;12.75;51.15;94886.03;4991409;28;20033;-79
2023/04/24 02:22:27;;;;;;;15.15;6.40;;;;;;;12.73;51.49;94899.66;4994214;28;20029;-78
2023/04/24 02:24:52;;;;;;;13.27;6.57;;;;;;;12.69;51.40;94885.34;4991869;28;20031;-78
2023/04/24 02:27:18;;;;;;;15.55;6.80;;;;;;;12.29;51.12;94827.50;4993079;28;20030;-78
2023/04/24 02:29:43;;;;;;;12.75;6.32;;;;;;;12.82;51.33;94917.56;4983855;28;20030;-78
2023/04/24 02:32:11;;;;;;;15.15;6.78;;;;;;;12.61;51.48;94885.22;4994894;28;20121;-79
2023/04/24 02:34:37;;;;;;;17.63;7.40;;;;;;;12.60;51.73;94896.94;4995014;28;20026;-78
2023/04/24 02:37:02;;;;;;;16.35;6.43;;;;;;;12.69;51.85;94906.63;5012681;28;20033;-78
2023/04/24 02:39:28;;;;;;;13.98;6.38;;;;;;;12.74;52.17;94913.72;4982246;28;20117;-79
2023/04/24 02:41:53;;;;;;;17.33;6.88;;;;;;;12.29;52.41;94841.59;4989746;28;20722;-78
2023/04/24 02:44:19;;;;;;;17.90;7.45;;;;;;;12.75;52.51;94912.63;5012337;28;20499;-79
2023/04/24 02:46:44;;;;;;;14.55;7.25;;;;;;;12.54;52.79;94890.13;4994628;28;20038;-78
2023/04/24 02:49:11;;;;;;;16.42;6.38;;;;;;;12.48;52.99;94873.47;5012840;28;20037;-79
2023/04/24 02:51:40;;;;;;;13.82;6.53;;;;;;;12.66;52.73;94904.53;4994849;28;20841;-78
2023/04/24 02:54:05;;;;;;;12.88;5.78;;;;;;;12.25;53.13;94859.22;4991245;28;20501;-79
2023/04/24 02:56:31;;;;;;;12.02;7.35;;;;;;;12.36;53.25;94878.44;4994070;28;20104;-78
2023/04/24 02:58:56;;;;;;;11.43;6.82;;;;;;;11.89;53.45;94811.19;4994655;28;20183;-78
2023/04/24 03:01:22;;;;;;;13.93;7.20;;;;;;;12.33;53.33;94892.34;5004315;28;20333;-79
2023/04/24 03:03:47;;;;;;;18.08;7.50;;;;;;;11.83;53.30;94830.13;4989399;28;20429;-78
2023/04/24 03:06:12;;;;;;;13.27;7.00;;;;;;;12.07;53.66;94888.50;4976555;28;20030;-79
2023/04/24 03:08:38;;;;;;;10.27;7.07;;;;;;;12.28;53.47;94911.81;4992538;28;20026;-78
2023/04/24 03:11:03;;;;;;;16.27;7.30;;;;;;;12.20;53.43;94909.84;4987186;28;20050;-78
2023/04/24 03:13:29;;;;;;;13.70;6.95;;;;;;;12.14;54.10;94896.88;4983510;28;20572;-79
2023/04/24 03:15:54;;;;;;;18.58;7.60;;;;;;;11.97;53.95;94873.50;5012050;28;20072;-79
2023/04/24 03:18:20;;;;;;;20.90;8.20;;;;;;;11.84;53.98;94843.13;4993881;28;20416;-79
2023/04/24 03:20:47;;;;;;;19.08;8.50;;;;;;;12.33;53.84;94926.91;5012256;28;20108;-78
2023/04/24 03:23:12;;;;;;;10.65;7.18;;;;;;;12.32;54.25;94920.81;5012081;28;20444;-79
2023/04/24 03:25:38;;;;;;;19.75;8.13;;;;;;;12.04;54.89;94903.16;5011663;28;20048;-79
2023/04/24 03:28:04;;;;;;;23.10;8.70;;;;;;;12.20;54.60;94925.00;4993573;28;20103;-79
2023/04/24 03:30:30;;;;;;;19.05;8.40;;;;;;;12.08;54.22;94901.50;4994075;28;20042;-79
2023/04/24 03:32:55;;;;;;;23.02;8.23;;;;;;;12.02;54.82;94926.56;5010732;28;20037;-78
2023/04/24 03:35:21;;;;;;;19.38;8.90;;;;;;;11.61;54.71;94866.00;4992162;28;20026;-78
2023/04/24 03:37:47;;;;;;;16.80;7.90;;;;;;;11.89;54.70;94895.41;4994150;28;20413;-79
2023/04/24 03:40:13;;;;;;;19.98;8.60;;;;;;;11.86;55.05;94898.63;4993629;28;20026;-79
2023/04/24 03:42:38;;;;;;;17.92;9.43;;;;;;;11.88;54.77;94912.44;4993906;28;20112;-78
2023/04/24 03:45:05;;;;;;;17.10;7.78;;;;;;;12.04;54.45;94921.78;5011332;28;20465;-79
2023/04/24 03:47:30;;;;;;;18.27;8.75;;;;;;;12.10;54.72;94920.63;4993151;28;20495;-79
2023/04/24 03:49:56;;;;;;;22.05;8.45;;;;;;;12.10;55.10;94920.63;5010974;28;20026;-79
2023/04/24 03:52:21;;;;;;;26.60;8.98;;;;;;;12.00;55.10;94902.16;4993632;28;20037;-78
2023/04/24 03:54:47;;;;;;;21.65;7.85;;;;;;;11.87;55.19;94886.94;4993645;28;20579;-79
2023/04/24 03:57:12;;;;;;;16.05;8.13;;;;;;;11.92;55.17;94879.69;5010874;28;20067;-79
2023/04/24 03:59:37;;;;;;;26.23;9.07;;;;;;;12.25;54.78;94922.25;5010113;28;20034;-79
2023/04/24 04:02:03;;;;;;;15.77;8.35;;;;;;;11.48;54.93;94796.88;5010360;28;20037;-79
2023/04/24 04:04:28;;;;;;;16.80;9.38;;;;;;;12.28;54.79;94925.09;4991458;28;20132;-78
2023/04/24 04:06:54;;;;;;;21.52;8.95;;;;;;;11.85;55.51;94902.38;4999449;28;20096;-78
2023/04/24 04:09:19;;;;;;;29.05;8.55;;;;;;;11.48;54.96;94831.41;5009502;28;20450;-78
2023/04/24 04:11:45;;;;;;;19.92;8.77;;;;;;;12.18;54.90;94916.50;4989468;28;20054;-78
2023/04/24 04:14:10;;;;;;;21.35;8.80;;;;;;;12.32;54.29;94918.13;4989439;28;20128;-79
2023/04/24 04:16:38;;;;;;;24.52;8.57;;;;;;;12.31;54.27;94905.13;4988563;28;20022;-79
2023/04/24 04:19:05;;;;;;;13.05;7.10;;;;;;;12.39;54.10;94904.47;4985118;28;20125;-80
2023/04/24 04:21:31;;;;;;;10.18;5.68;;;;;;;12.31;52.65;94882.00;4979893;28;20042;-78
2023/04/24 04:23:56;;;;;;;14.80;5.80;;;;;;;12.38;52.16;94892.25;4982066;28;20073;-79
2023/04/24 04:26:25;;;;;;;13.85;5.47;;;;;;;12.32;52.12;94890.75;4980111;28;20041;-79
2023/04/24 04:28:51;;;;;;;20.05;5.57;;;;;;;12.58;51.69;94907.09;4986705;28;20121;-78
2023/04/24 04:31:16;;;;;;;14.93;5.40;;;;;;;12.61;51.98;94915.25;4991677;28;20045;-78
2023/04/24 04:33:42;;;;;;;10.95;5.38;;;;;;;12.72;51.52;94919.34;4988317;28;20034;-79
2023/04/24 04:36:08;;;;;;;18.73;5.85;;;;;;;12.81;51.09;94922.13;4986320;28;20049;-79
2023/04/24 04:38:34;;;;;;;13.27;5.40;;;;;;;12.68;51.03;94893.59;4968149;28;20492;-79
2023/04/24 04:41:00;;;;;;;17.20;6.05;;;;;;;12.28;50.86;94834.69;4984454;28;20048;-79
2023/04/24 04:43:26;;;;;;;13.38;5.10;;;;;;;12.79;50.65;94912.84;4983085;28;20038;-79
2023/04/24 04:45:52;;;;;;;14.13;5.63;;;;;;;13.05;50.13;94945.91;4990189;28;20054;-79
2023/04/24 04:48:18;;;;;;;14.20;6.35;;;;;;;13.07;49.73;94954.38;4975468;28;20113;-79
2023/04/24 04:50:44;;;;;;;12.18;5.93;;;;;;;13.10;49.93;94957.25;4973961;28;20584;-79
2023/04/24 04:53:10;;;;;;;19.55;5.65;;;;;;;13.11;50.21;94948.19;4981508;28;20121;-79
2023/04/24 04:55:36;;;;;;;12.02;5.70;;;;;;;13.11;50.19;94945.53;4974189;28;20030;-78
2023/04/24 04:58:01;;;;;;;12.68;5.68;;;;;;;13.00;49.98;94924.69;4977102;28;20041;-79
2023/04/24 05:00:28;;;;;;;14.52;5.55;;;;;;;13.17;49.87;94953.44;4983801;28;20031;-78
2023/04/24 05:02:54;;;;;;;17.23;5.82;;;;;;;13.12;49.54;94941.00;4978731;28;20030;-78
2023/04/24 05:05:19;;;;;;;17.15;5.85;;;;;;;13.05;49.22;94930.72;4975863;28;20539;-79
2023/04/24 05:07:45;;;;;;;14.82;6.72;;;;;;;13.03;49.64;94927.56;4979461;28;20022;-79
2023/04/24 05:10:10;;;;;;;17.83;6.03;;;;;;;13.09;49.94;94942.38;4981265;28;20481;-80
2023/04/24 05:12:36;;;;;;;13.15;6.28;;;;;;;13.09;50.22;94939.72;4968279;28;20161;-79
2023/04/24 05:15:02;;;;;;;19.50;6.85;;;;;;;13.13;49.83;94947.91;4961844;28;20054;-82
2023/04/24 05:17:28;;;;;;;13.77;6.57;;;;;;;13.20;49.45;94950.97;4976092;28;20038;-82
2023/04/24 05:19:54;;;;;;;15.02;7.28;;;;;;;13.18;49.78;94944.38;4972579;28;20528;-80
2023/04/24 05:22:20;;;;;;;22.33;7.32;;;;;;;12.27;49.61;94848.31;4963559;28;20043;-80
2023/04/24 05:24:46;;;;;;;14.80;8.20;;;;;;;12.78;49.99;94904.06;4969649;28;20066;-79
2023/04/24 05:27:12;;;;;;;19.77;9.07;;;;;;;13.19;49.35;94941.44;4965936;28;20030;-80
2023/04/24 05:29:37;;;;;;;16.40;8.40;;;;;;;12.99;49.63;94897.28;4970663;28;20514;-79
2023/04/24 05:32:03;;;;;;;19.92;8.75;;;;;;;13.20;50.20;94920.91;4969859;28;20587;-79
2023/04/24 05:34:28;;;;;;;20.50;8.85;;;;;;;13.41;50.60;94956.72;4970697;28;20035;-79
2023/04/24 05:36:54;;;;;;;23.02;9.23;;;;;;;13.42;50.36;94939.66;4967038;28;20076;-81
2023/04/24 05:39:20;;;;;;;23.20;8.77;;;;;;;13.44;49.78;94959.56;4965402;28;20494;-79
2023/04/24 05:41:45;;;;;;;18.85;9.10;;;;;;;13.56;49.92;94959.09;4970881;28;20069;-79
2023/04/24 05:44:11;;;;;;;24.33;8.68;;;;;;;13.14;49.92;94890.91;4966090;28;20134;-81
2023/04/24 05:46:36;;;;;;;16.85;8.32;;;;;;;13.64;50.06;94958.41;4970073;28;20347;-80
2023/04/24 05:49:02;;;;;;;17.77;8.60;;;;;;;13.14;50.28;94873.06;4974085;28;20042;-79
2023/04/24 05:51:28;;;;;;;19.52;8.73;;;;;;;13.73;50.30;94961.91;4973727;28;20209;-79
2023/04/24 05:53:54;;;;;;;17.95;8.68;;;;;;;13.46;50.11;94935.31;4970512;28;20027;-80
2023/04/24 05:56:20;;;;;;;24.85;9.27;;;;;;;13.61;49.80;94943.00;4967611;28;20038;-81
2023/04/24 05:58:46;;;;;;;19.17;9.18;;;;;;;13.73;49.66;94958.47;4979489;28;20038;-80
2023/04/24 06:01:14;;;;;;;24.83;9.55;;;;;;;13.54;49.07;94926.63;4976222;28;20072;-78
2023/04/24 06:03:40;;;;;;;35.25;9.95;;;;;;;13.62;48.90;94951.78;4975459;28;20042;-80
2023/04/24 06:06:07;;;;;;;20.60;9.50;;;;;;;13.39;49.02;94921.59;4972173;28;20039;-78
2023/04/24 06:08:32;;;;;;;19.05;9.60;;;;;;;13.39;49.21;94919.72;4966372;28;20398;-78
2023/04/24 06:10:58;;;;;;;23.10;9.95;;;;;;;13.69;49.74;94965.47;4970432;28;20057;-80
2023/04/24 06:13:24;;;;;;;23.20;9.13;;;;;;;13.35;49.98;94912.63;4974157;28;20046;-80
2023/04/24 06:15:50;;;;;;;25.88;9.20;;;;;;;13.66;49.67;94948.19;4975286;28;20046;-80
2023/04/24 06:18:16;;;;;;;19.60;9.38;;;;;;;13.82;49.59;94960.13;4974971;28;20548;-79
2023/04/24 06:20:41;;;;;;;19.75;8.90;;;;;;;13.70;50.29;94943.88;4981067;28;20700;-79
2023/04/24 06:23:07;;;;;;;20.30;9.88;;;;;;;13.85;50.55;94964.09;4983364;28;20034;-80
2023/04/24 06:25:33;;;;;;;16.88;9.07;;;;;;;13.80;49.97;94953.53;4995110;28;20052;-81
2023/04/24 06:27:58;;;;;;;27.33;9.15;;;;;;;13.29;49.90;94855.22;4968707;28;20037;-80
2023/04/24 06:30:24;;;;;;;19.13;9.77;;;;;;;13.65;49.49;94917.34;4997277;28;20092;-82
2023/04/24 06:32:50;;;;;;;16.23;9.90;;;;;;;13.77;49.95;94936.25;4997163;28;20046;-81
2023/04/24 06:35:17;;;;;;;20.10;9.32;;;;;;;13.73;50.40;94924.59;4981517;28;20567;-79
2023/04/24 06:37:42;;;;;;;14.65;9.30;;;;;;;13.64;50.43;94885.66;4976670;28;20076;-81
2023/04/24 06:40:09;;;;;;;23.23;10.23;;;;;;;13.77;50.48;94946.13;4991572;28;20125;-81
2023/04/24 06:42:35;;;;;;;21.52;9.05;;;;;;;13.42;50.24;94887.19;4980963;28;20041;-82
2023/04/24 06:45:01;;;;;;;25.95;10.85;;;;;;;13.65;51.24;94965.31;4978986;28;20046;-81
2023/04/24 06:47:26;;;;;;;20.52;10.27;;;;;;;13.80;50.74;94942.88;4980492;28;20085;-80
2023/04/24 06:49:52;;;;;;;27.17;10.80;;;;;;;14.03;50.28;94943.72;4974919;28;20116;-81
2023/04/24 06:52:18;;;;;;;32.38;17.00;;;;;;;14.05;50.36;94952.19;4973021;28;20725;-84
2023/04/24 06:54:44;;;;;;;26.10;10.05;;;;;;;13.96;50.10;94943.34;4981493;28;20124;-83
2023/04/24 06:57:10;;;;;;;21.73;10.02;;;;;;;13.44;50.52;94860.22;5000597;28;20118;-82
2023/04/24 06:59:36;;;;;;;23.83;10.20;;;;;;;14.05;50.03;94920.97;4977342;28;20493;-80
2023/04/24 07:02:01;;;;;;;20.27;10.38;;;;;;;14.28;49.99;94935.13;4993362;28;20036;-80
2023/04/24 07:04:27;;;;;;;22.08;11.43;;;;;;;14.27;49.84;94913.00;4995184;28;20125;-82
2023/04/24 07:06:55;;;;;;;24.77;9.80;;;;;;;13.67;49.54;94826.41;4982007;28;20045;-81
2023/04/24 07:09:25;;;;;;;28.00;9.95;;;;;;;14.29;48.97;94910.81;4979941;28;20086;-82
2023/04/24 07:11:51;;;;;;;16.15;9.45;;;;;;;14.66;48.95;94935.59;4973094;28;20104;-80
2023/04/24 07:14:17;;;;;;;28.70;10.60;;;;;;;14.29;48.79;94878.81;4970366;28;20177;-80
2023/04/24 07:16:43;;;;;;;22.25;9.85;;;;;;;13.88;49.23;94835.56;4967393;28;20046;-79
2023/04/24 07:19:09;;;;;;;22.83;10.10;;;;;;;14.45;49.57;94923.84;4971113;28;20030;-80
2023/04/24 07:21:34;;;;;;;20.15;9.77;;;;;;;14.22;49.50;94878.44;4966320;28;20121;-79
2023/04/24 07:24:00;;;;;;;24.50;9.88;;;;;;;14.56;49.49;94915.28;4971401;28;20121;-80
2023/04/24 07:26:28;;;;;;;21.17;10.43;;;;;;;14.81;49.21;94953.09;4971528;28;20058;-81
2023/04/24 07:28:53;;;;;;;27.83;12.02;;;;;;;14.73;49.19;94927.16;4975855;28;20425;-81
2023/04/24 07:31:19;;;;;;;21.35;10.85;;;;;;;14.52;48.93;94876.16;4975324;28;20042;-80
2023/04/24 07:33:47;;;;;;;26.83;11.85;;;;;;;14.50;49.68;94883.69;4976674;28;20030;-80
2023/04/24 07:36:16;;;;;;;23.63;11.35;;;;;;;14.35;49.51;94844.78;4975605;28;20034;-80
2023/04/24 07:38:42;;;;;;;18.80;10.38;;;;;;;14.80;49.29;94888.25;4975312;28;20116;-81
2023/04/24 07:41:08;;;;;;;22.50;9.38;;;;;;;14.68;49.52;94875.47;4971503;28;20034;-81
2023/04/24 07:43:33;;;;;;;16.83;8.90;;;;;;;14.98;49.73;94913.16;4975027;28;20046;-81
2023/04/24 07:45:59;;;;;;;19.33;8.13;;;;;;;15.01;48.95;94907.22;4974626;28;20053;-81
2023/04/24 07:48:26;;;;;;;22.33;9.02;;;;;;;15.03;49.23;94908.47;4969097;28;20041;-82
2023/04/24 07:50:52;;;;;;;13.20;8.38;;;;;;;14.99;48.59;94904.06;4966909;28;20137;-84
2023/04/24 07:53:17;;;;;;;21.00;8.70;;;;;;;14.26;49.32;94794.09;4966855;28;20030;-80
2023/04/24 07:55:43;;;;;;;16.92;7.43;;;;;;;15.19;48.68;94913.41;4976957;28;20050;-79
2023/04/24 07:58:08;;;;;;;19.50;7.22;;;;;;;15.05;48.18;94868.09;4969498;28;20081;-80
2023/04/24 08:00:34;;;;;;;21.77;8.40;;;;;;;15.10;49.21;94875.22;4962224;28;20409;-79
2023/04/24 08:02:59;;;;;;;19.95;8.18;;;;;;;15.33;49.28;94904.19;4958496;28;20045;-77
2023/04/24 08:05:27;;;;;;;20.73;8.13;;;;;;;15.06;49.57;94867.00;4973252;28;20042;-77
2023/04/24 08:07:52;;;;;;;24.90;9.48;;;;;;;15.31;49.55;94906.38;4967666;28;20600;-77
2023/04/24 08:10:18;;;;;;;16.08;7.78;;;;;;;14.90;48.61;94863.97;4972926;28;20044;-77
2023/04/24 08:12:43;;;;;;;19.73;7.95;;;;;;;15.22;49.01;94878.84;4988549;28;20136;-77
2023/04/24 08:15:09;;;;;;;11.90;7.00;;;;;;;15.07;48.67;94884.63;4982763;28;20497;-77
2023/04/24 08:17:35;;;;;;;11.82;7.70;;;;;;;14.86;50.21;94880.91;4978081;28;20045;-77
2023/04/24 08:20:01;;;;;;;14.77;7.75;;;;;;;15.16;51.35;94879.31;4993954;28;20050;-77
2023/04/24 08:22:30;;;;;;;16.88;7.93;;;;;;;15.22;50.70;94899.44;4969753;28;20068;-77
2023/04/24 08:24:56;;;;;;;19.00;9.02;;;;;;;15.14;50.41;94857.44;4982162;28;20037;-77
2023/04/24 08:27:25;;;;;;;12.27;7.22;;;;;;;15.52;50.08;94892.44;4995260;28;20030;-77
2023/04/24 08:29:53;;;;;;;11.90;6.47;;;;;;;15.60;49.23;94881.81;4995688;28;20050;-77
2023/04/24 08:32:18;;;;;;;10.55;6.32;;;;;;;15.55;48.98;94855.25;4980504;28;20039;-76
2023/04/24 08:34:44;;;;;;;17.98;7.57;;;;;;;15.66;49.13;94872.53;4979953;28;20041;-77
2023/04/24 08:37:09;;;;;;;21.25;7.38;;;;;;;15.66;48.17;94850.38;4981364;28;20117;-79
2023/04/24 08:39:36;;;;;;;18.90;7.18;;;;;;;15.26;47.82;94780.94;4966115;28;20451;-80
2023/04/24 08:42:05;;;;;;;13.23;6.53;;;;;;;15.75;48.44;94849.28;4957803;28;20493;-77
2023/04/24 08:44:35;;;;;;;14.75;6.65;;;;;;;16.06;48.85;94875.88;4980332;28;20044;-79
2023/04/24 08:47:02;;;;;;;15.93;6.90;;;;;;;16.05;49.23;94857.47;4974750;28;20038;-80
2023/04/24 08:49:28;;;;;;;13.55;7.13;;;;;;;15.88;48.09;94812.78;4994855;28;20053;-79
2023/04/24 08:51:53;;;;;;;18.88;7.35;;;;;;;16.18;46.85;94868.00;4993758;28;20033;-79
2023/04/24 08:54:19;;;;;;;15.85;7.53;;;;;;;16.34;46.29;94862.16;4976384;28;20107;-77
2023/04/24 08:56:47;;;;;;;13.48;7.38;;;;;;;16.46;46.63;94857.75;4973319;28;20030;-78
2023/04/24 08:59:13;;;;;;;17.30;6.13;;;;;;;16.25;46.50;94822.03;4994874;28;20090;-78
2023/04/24 09:01:40;;;;;;;16.02;6.82;;;;;;;16.35;47.03;94845.00;4989321;28;20034;-79
2023/04/24 09:04:10;;;;;;;15.45;6.38;;;;;;;16.24;45.88;94841.91;4978077;28;20532;-78
2023/04/24 09:06:36;;;;;;;15.77;6.70;;;;;;;16.39;45.97;94849.44;4993645;28;20128;-79
2023/04/24 09:09:03;;;;;;;12.43;5.93;;;;;;;16.53;46.29;94843.88;4979298;28;20046;-80
2023/04/24 09:11:31;;;;;;;13.75;6.78;;;;;;;16.51;45.44;94822.78;4997284;28;20066;-78
2023/04/24 09:13:57;;;;;;;11.02;6.53;;;;;;;16.71;45.21;94823.22;4994113;28;20501;-78
2023/04/24 09:16:25;;;;;;;12.40;6.07;;;;;;;16.52;47.10;94783.41;4976483;28;20516;-79
2023/04/24 09:18:51;;;;;;;12.73;6.35;;;;;;;16.71;46.03;94788.41;4966747;28;20484;-79
2023/04/24 09:21:17;;;;;;;12.32;6.28;;;;;;;17.08;45.03;94832.41;4982453;28;20041;-79
2023/04/24 09:23:42;;;;;;;11.23;6.20;;;;;;;17.01;44.02;94784.69;4977865;28;20046;-79
2023/04/24 09:26:10;;;;;;;10.02;5.70;;;;;;;17.44;45.00;94815.78;4993025;28;20211;-79
2023/04/24 09:28:37;;;;;;;12.38;6.68;;;;;;;17.10;45.72;94779.25;4969848;28;20038;-79
2023/04/24 09:31:04;;;;;;;13.38;5.95;;;;;;;17.57;45.25;94799.47;4987701;28;20558;-78
2023/04/24 09:33:29;;;;;;;11.45;6.07;;;;;;;17.75;45.10;94794.78;4993323;28;20137;-79
2023/04/24 09:35:55;;;;;;;12.68;6.30;;;;;;;17.97;44.07;94788.28;4974770;28;20157;-77
2023/04/24 09:38:31;;;;;;;14.18;5.97;;;;;;;18.08;44.63;94786.75;4975943;28;20080;-79
2023/04/24 09:41:00;;;;;;;11.57;5.40;;;;;;;18.32;44.29;94802.16;4991625;28;20618;-77
2023/04/24 09:43:26;;;;;;;11.55;5.60;;;;;;;18.12;43.98;94753.59;4981275;28;20524;-78
2023/04/24 09:45:56;;;;;;;14.52;6.32;;;;;;;18.30;44.23;94756.09;4988807;28;20116;-78
2023/04/24 09:48:31;;;;;;;13.15;6.20;;;;;;;18.65;43.49;94778.00;4980562;28;20041;-78
2023/04/24 09:50:56;;;;;;;19.52;6.28;;;;;;;18.85;42.99;94767.16;4978716;28;20057;-79
2023/04/24 09:53:26;;;;;;;7.07;4.97;;;;;;;19.47;40.87;94781.38;4992956;28;20097;-78
2023/04/24 09:55:52;;;;;;;12.60;5.40;;;;;;;20.35;37.07;94799.31;4991017;28;20380;-80
2023/04/24 09:58:24;;;;;;;10.68;5.00;;;;;;;21.07;37.45;94767.63;4979924;28;20050;-78
2023/04/24 10:00:52;;;;;;;13.70;5.05;;;;;;;22.06;35.63;94772.56;4980121;28;20069;-81
2023/04/24 10:03:18;;;;;;;8.00;5.07;;;;;;;23.12;33.71;94770.22;4984841;28;20165;-83
2023/04/24 10:05:46;;;;;;;10.90;5.47;;;;;;;22.89;34.20;94703.41;4975829;28;20229;-84
2023/04/24 10:08:13;;;;;;;11.13;4.85;;;;;;;24.59;30.83;94772.56;4974242;28;20449;-86
2023/04/24 10:10:43;;;;;;;17.45;5.50;;;;;;;25.43;30.52;94771.00;4977443;28;20038;-82
2023/04/24 10:13:15;;;;;;;12.20;5.10;;;;;;;24.82;31.00;94661.22;4986289;28;20655;-82
2023/04/24 10:15:42;;;;;;;7.35;4.47;;;;;;;24.48;28.94;94489.81;4997094;28;20038;-85
2023/04/24 10:18:09;;;;;;;9.38;4.20;;;;;;;26.25;28.39;94658.06;4980781;28;20033;-79
2023/04/24 10:20:36;;;;;;;8.45;4.32;;;;;;;26.75;27.55;94760.38;4972920;28;20061;-79
2023/04/24 10:23:03;;;;;;;11.05;4.18;;;;;;;26.98;28.55;94689.28;4991725;28;20316;-80
2023/04/24 10:25:35;;;;;;;7.30;4.20;;;;;;;27.64;27.97;94744.81;4977778;28;20034;-80
2023/04/24 10:28:02;;;;;;;15.43;4.57;;;;;;;28.00;25.86;94742.00;4980096;28;20035;-82
2023/04/24 10:30:35;;;;;;;9.65;4.10;;;;;;;27.81;26.54;94656.03;4983458;28;20038;-85
2023/04/24 10:33:06;;;;;;;10.95;3.90;;;;;;;28.64;26.92;94741.72;4974859;28;20046;-79
2023/04/24 10:35:34;;;;;;;13.02;4.75;;;;;;;28.78;25.59;94733.47;4974830;28;20428;-78
2023/04/24 10:38:25;;;;;;;9.05;4.10;;;;;;;28.90;24.05;94729.50;4976756;28;20040;-79
2023/04/24 10:40:50;;;;;;;10.53;4.27;;;;;;;29.01;23.14;94709.13;4961609;28;20038;-79
2023/04/24 10:43:18;;;;;;;14.25;5.18;;;;;;;28.42;23.60;94681.84;4976160;28;20045;-78
2023/04/24 10:46:01;;;;;;;12.95;4.97;;;;;;;28.64;24.27;94720.66;4978751;28;20544;-78
2023/04/24 10:48:27;;;;;;;9.60;4.45;;;;;;;28.30;25.35;94692.44;4996318;28;20152;-77
2023/04/24 10:50:53;;;;;;;8.77;4.05;;;;;;;28.15;24.41;94671.84;4978740;28;20144;-78
2023/04/24 10:53:28;;;;;;;8.45;3.83;;;;;;;28.08;25.23;94683.53;4982900;28;20057;-78
2023/04/24 10:55:56;;;;;;;9.02;4.15;;;;;;;28.40;25.67;94700.53;4979583;28;20381;-77
2023/04/24 10:58:23;;;;;;;18.15;4.75;;;;;;;28.33;24.74;94665.13;4976005;28;20062;-77
2023/04/24 11:00:57;;;;;;;10.05;3.95;;;;;;;28.23;25.92;94703.38;4978280;28;20079;-77
2023/04/24 11:03:32;;;;;;;8.75;4.05;;;;;;;28.14;24.68;94662.91;4990403;28;20038;-77
2023/04/24 11:06:05;;;;;;;11.43;4.80;;;;;;;28.07;25.68;94687.47;4972666;28;20037;-78
2023/04/24 11:08:45;;;;;;;10.95;4.25;;;;;;;27.51;26.00;94672.84;4979736;28;20072;-78
2023/04/24 11:11:10;;;;;;;8.93;4.10;;;;;;;27.12;26.35;94696.66;4996047;28;20069;-78
2023/04/24 11:13:54;;;;;;;11.73;4.47;;;;;;;26.12;27.33;94693.75;4975481;28;20555;-78
2023/04/24 11:17:03;;;;;;;15.57;5.43;;;;;;;24.96;28.08;94662.13;4977967;28;20048;-76
2023/04/24 11:19:29;;;;;;;14.77;5.25;;;;;;;23.88;29.63;94657.25;4949640;28;20101;-82
2023/04/24 11:22:03;;;;;;;14.98;5.38;;;;;;;23.25;30.96;94672.28;4975085;28;20030;-79
2023/04/24 11:25:04;;;;;;;9.77;5.07;;;;;;;22.77;31.34;94713.66;4970076;28;20038;-79